createdAt,value
2023-01-12T00:00:50.976Z,9.21
2023-01-12T00:01:50.953Z,9.22
2023-01-12T00:02:50.925Z,9.24
2023-01-12T00:03:50.946Z,9.24
2023-01-12T00:04:50.997Z,9.26
2023-01-12T00:05:50.872Z,9.26
2023-01-12T00:06:50.896Z,9.26
2023-01-12T00:07:50.980Z,9.26
2023-01-12T00:08:50.842Z,9.22
2023-01-12T00:09:50.849Z,9.24
2023-01-12T00:10:50.817Z,9.24
2023-01-12T00:11:50.824Z,9.22
2023-01-12T00:12:50.799Z,9.22
2023-01-12T00:13:50.766Z,9.22
2023-01-12T00:14:50.815Z,9.24
2023-01-12T00:15:50.775Z,9.22
2023-01-12T00:16:50.731Z,9.22
2023-01-12T00:17:50.717Z,9.26
2023-01-12T00:18:50.709Z,9.26
2023-01-12T00:19:50.726Z,9.27
2023-01-12T00:20:50.676Z,9.27
2023-01-12T00:21:50.750Z,9.27
2023-01-12T00:22:50.657Z,9.27
2023-01-12T00:23:50.646Z,9.27
2023-01-12T00:24:50.654Z,9.26
2023-01-12T00:25:50.612Z,9.27
2023-01-12T00:26:50.626Z,9.29
2023-01-12T00:27:50.586Z,9.29
2023-01-12T00:28:50.606Z,9.30
2023-01-12T00:29:50.630Z,9.30
2023-01-12T00:30:50.558Z,9.29
2023-01-12T00:31:50.545Z,9.30
2023-01-12T00:32:50.515Z,9.30
2023-01-12T00:33:50.507Z,9.31
2023-01-12T00:34:50.536Z,9.31
2023-01-12T00:35:50.478Z,9.31
2023-01-12T00:36:50.505Z,9.34
2023-01-12T00:37:50.458Z,9.36
2023-01-12T00:38:50.489Z,9.34
2023-01-12T00:40:01.918Z,9.34
2023-01-12T00:40:51.474Z,9.36
2023-01-12T00:41:50.416Z,9.36
2023-01-12T00:42:50.400Z,9.36
2023-01-12T00:43:50.377Z,9.34
2023-01-12T00:44:50.366Z,9.34
2023-01-12T00:45:50.447Z,9.33
2023-01-12T00:46:50.382Z,9.39
2023-01-12T00:47:50.336Z,9.37
2023-01-12T00:48:50.307Z,9.36
2023-01-12T00:49:50.296Z,9.34
2023-01-12T00:50:50.305Z,9.34
2023-01-12T00:51:50.269Z,9.33
2023-01-12T00:52:50.259Z,9.33
2023-01-12T00:53:50.268Z,9.33
2023-01-12T00:54:50.236Z,9.33
2023-01-12T00:55:50.243Z,9.30
2023-01-12T00:56:50.197Z,9.29
2023-01-12T00:57:50.210Z,9.27
2023-01-12T00:58:50.186Z,9.27
2023-01-12T00:59:50.166Z,9.26
2023-01-12T01:00:50.224Z,9.27
2023-01-12T01:01:50.262Z,9.27
2023-01-12T01:02:50.259Z,9.24
2023-01-12T01:03:50.117Z,9.24
2023-01-12T01:04:50.107Z,9.24
2023-01-12T01:05:50.111Z,9.24
2023-01-12T01:06:50.098Z,9.22
2023-01-12T01:07:50.092Z,9.21
2023-01-12T01:08:50.064Z,9.19
2023-01-12T01:09:50.046Z,9.19
2023-01-12T01:10:50.048Z,9.18
2023-01-12T01:11:50.023Z,9.16
2023-01-12T01:12:50.028Z,9.15
2023-01-12T01:13:49.986Z,9.12
2023-01-12T01:14:49.967Z,9.13
2023-01-12T01:15:49.990Z,9.12
2023-01-12T01:16:50.021Z,9.12
2023-01-12T01:17:49.946Z,9.12
2023-01-12T01:18:49.945Z,9.11
2023-01-12T01:19:49.919Z,9.12
2023-01-12T01:20:49.916Z,9.12
2023-01-12T01:21:49.894Z,9.12
2023-01-12T01:22:49.866Z,9.12
2023-01-12T01:23:49.863Z,9.09
2023-01-12T01:24:49.871Z,9.09
2023-01-12T01:25:49.828Z,9.09
2023-01-12T01:26:49.833Z,9.09
2023-01-12T01:27:49.795Z,9.08
2023-01-12T01:28:49.785Z,9.05
2023-01-12T01:29:49.786Z,9.08
2023-01-12T01:30:49.819Z,9.05
2023-01-12T01:31:49.737Z,9.03
2023-01-12T01:32:49.737Z,9.02
2023-01-12T01:33:49.720Z,9.02
2023-01-12T01:34:49.708Z,9.00
2023-01-12T01:35:49.705Z,9.00
2023-01-12T01:36:49.694Z,8.99
2023-01-12T01:37:49.668Z,8.99
2023-01-12T01:38:49.650Z,8.99
2023-01-12T01:39:49.673Z,8.99
2023-01-12T01:40:49.645Z,8.96
2023-01-12T01:41:49.616Z,8.95
2023-01-12T01:42:49.588Z,8.96
2023-01-12T01:43:49.586Z,8.93
2023-01-12T01:44:49.575Z,8.93
2023-01-12T01:45:49.585Z,8.93
2023-01-12T01:46:49.582Z,8.93
2023-01-12T01:47:49.527Z,8.95
2023-01-12T01:48:49.516Z,8.96
2023-01-12T01:49:49.532Z,8.97
2023-01-12T01:50:49.537Z,8.97
2023-01-12T01:51:49.486Z,8.96
2023-01-12T01:52:49.477Z,8.95
2023-01-12T01:53:49.447Z,8.93
2023-01-12T01:54:49.467Z,8.95
2023-01-12T01:55:49.447Z,8.97
2023-01-12T01:56:49.428Z,8.96
2023-01-12T01:57:49.405Z,8.95
2023-01-12T01:58:49.386Z,8.95
2023-01-12T01:59:49.379Z,8.95
2023-01-12T02:00:49.401Z,8.93
2023-01-12T02:01:49.374Z,8.95
2023-01-12T02:02:49.351Z,8.95
2023-01-12T02:03:49.317Z,8.95
2023-01-12T02:04:49.309Z,8.92
2023-01-12T02:05:49.302Z,8.92
2023-01-12T02:06:49.310Z,8.95
2023-01-12T02:07:49.278Z,8.93
2023-01-12T02:08:49.257Z,8.96
2023-01-12T02:09:49.249Z,8.95
2023-01-12T02:10:49.226Z,8.93
2023-01-12T02:11:49.309Z,8.96
2023-01-12T02:12:49.223Z,8.95
2023-01-12T02:13:49.198Z,8.95
2023-01-12T02:14:49.941Z,8.97
2023-01-12T02:15:49.208Z,9.00
2023-01-12T02:16:49.190Z,9.00
2023-01-12T02:17:49.137Z,9.00
2023-01-12T02:18:49.128Z,9.03
2023-01-12T02:19:49.116Z,9.09
2023-01-12T02:20:49.097Z,9.08
2023-01-12T02:21:49.107Z,9.08
2023-01-12T02:22:49.067Z,9.12
2023-01-12T02:23:49.082Z,9.11
2023-01-12T02:24:49.047Z,9.11
2023-01-12T02:25:49.028Z,9.12
2023-01-12T02:26:49.037Z,9.13
2023-01-12T02:27:49.019Z,9.15
2023-01-12T02:28:48.986Z,9.13
2023-01-12T02:29:48.993Z,9.15
2023-01-12T02:30:48.960Z,9.13
2023-01-12T02:31:48.966Z,9.13
2023-01-12T02:32:48.928Z,9.11
2023-01-12T02:33:48.936Z,9.11
2023-01-12T02:34:48.914Z,9.12
2023-01-12T02:35:48.896Z,9.13
2023-01-12T02:36:48.888Z,9.13
2023-01-12T02:37:48.867Z,9.13
2023-01-12T02:38:48.879Z,9.13
2023-01-12T02:39:48.841Z,9.15
2023-01-12T02:40:48.843Z,9.15
2023-01-12T02:41:48.834Z,9.15
2023-01-12T02:42:48.797Z,9.18
2023-01-12T02:43:48.786Z,9.18
2023-01-12T02:44:48.787Z,9.16
2023-01-12T02:45:48.762Z,9.18
2023-01-12T02:46:48.798Z,9.18
2023-01-12T02:47:48.774Z,9.21
2023-01-12T02:48:48.722Z,9.22
2023-01-12T02:49:48.727Z,9.24
2023-01-12T02:50:48.697Z,9.26
2023-01-12T02:51:48.691Z,9.26
2023-01-12T02:52:48.675Z,9.26
2023-01-12T02:53:48.659Z,9.26
2023-01-12T02:54:48.659Z,9.27
2023-01-12T02:55:48.640Z,9.29
2023-01-12T02:56:48.633Z,9.29
2023-01-12T02:57:48.612Z,9.29
2023-01-12T02:58:48.590Z,9.30
2023-01-12T02:59:48.607Z,9.30
2023-01-12T03:00:48.570Z,9.29
2023-01-12T03:01:48.628Z,9.30
2023-01-12T03:02:48.553Z,9.30
2023-01-12T03:03:48.527Z,9.30
2023-01-12T03:04:48.517Z,9.30
2023-01-12T03:05:48.516Z,9.30
2023-01-12T03:06:48.477Z,9.30
2023-01-12T03:07:48.461Z,9.31
2023-01-12T03:08:48.467Z,9.30
2023-01-12T03:09:48.458Z,9.30
2023-01-12T03:10:48.447Z,9.31
2023-01-12T03:11:48.425Z,9.31
2023-01-12T03:12:48.422Z,9.31
2023-01-12T03:13:48.393Z,9.31
2023-01-12T03:14:48.397Z,9.31
2023-01-12T03:15:48.391Z,9.33
2023-01-12T03:16:48.353Z,9.33
2023-01-12T03:17:48.337Z,9.34
2023-01-12T03:18:48.331Z,9.37
2023-01-12T03:19:48.339Z,9.40
2023-01-12T03:20:48.292Z,9.40
2023-01-12T03:21:48.300Z,9.40
2023-01-12T03:22:48.268Z,9.40
2023-01-12T03:23:48.248Z,9.40
2023-01-12T03:24:48.257Z,9.42
2023-01-12T03:25:48.247Z,9.42
2023-01-12T03:26:48.224Z,9.44
2023-01-12T03:27:48.198Z,9.44
2023-01-12T03:28:48.203Z,9.44
2023-01-12T03:29:48.176Z,9.45
2023-01-12T03:30:48.191Z,9.44
2023-01-12T03:31:48.140Z,9.45
2023-01-12T03:32:48.149Z,9.45
2023-01-12T03:33:48.143Z,9.44
2023-01-12T03:34:48.129Z,9.45
2023-01-12T03:35:48.118Z,9.44
2023-01-12T03:36:48.087Z,9.45
2023-01-12T03:37:48.071Z,9.44
2023-01-12T03:38:48.059Z,9.42
2023-01-12T03:39:48.044Z,9.44
2023-01-12T03:40:48.171Z,9.42
2023-01-12T03:41:48.023Z,9.44
2023-01-12T03:42:48.170Z,9.42
2023-01-12T03:43:47.989Z,9.47
2023-01-12T03:44:47.977Z,9.45
2023-01-12T03:45:48.010Z,9.47
2023-01-12T03:46:48.016Z,9.45
2023-01-12T03:47:47.939Z,9.44
2023-01-12T03:48:47.939Z,9.45
2023-01-12T03:49:47.908Z,9.47
2023-01-12T03:50:47.952Z,9.45
2023-01-12T03:51:47.888Z,9.42
2023-01-12T03:52:47.880Z,9.45
2023-01-12T03:53:47.848Z,9.47
2023-01-12T03:54:47.849Z,9.49
2023-01-12T03:55:47.874Z,9.48
2023-01-12T03:56:47.829Z,9.49
2023-01-12T03:57:47.818Z,9.51
2023-01-12T03:58:47.802Z,9.49
2023-01-12T03:59:47.769Z,9.48
2023-01-12T04:00:47.841Z,9.48
2023-01-12T04:01:48.059Z,9.48
2023-01-12T04:02:47.751Z,9.49
2023-01-12T04:03:47.720Z,9.51
2023-01-12T04:04:47.715Z,9.49
2023-01-12T04:05:47.721Z,9.49
2023-01-12T04:06:47.689Z,9.49
2023-01-12T04:07:47.679Z,9.51
2023-01-12T04:08:47.689Z,9.49
2023-01-12T04:09:47.649Z,9.49
2023-01-12T04:10:47.650Z,9.49
2023-01-12T04:11:47.619Z,9.49
2023-01-12T04:12:47.613Z,9.49
2023-01-12T04:13:47.598Z,9.49
2023-01-12T04:14:48.239Z,9.51
2023-01-12T04:15:47.715Z,9.52
2023-01-12T04:16:47.552Z,9.51
2023-01-12T04:17:47.527Z,9.51
2023-01-12T04:18:47.530Z,9.51
2023-01-12T04:19:47.508Z,9.48
2023-01-12T04:20:47.509Z,9.49
2023-01-12T04:21:47.489Z,9.51
2023-01-12T04:22:47.478Z,9.51
2023-01-12T04:23:47.471Z,9.54
2023-01-12T04:24:47.453Z,9.52
2023-01-12T04:25:47.456Z,9.52
2023-01-12T04:26:47.417Z,9.54
2023-01-12T04:27:47.435Z,9.52
2023-01-12T04:28:47.399Z,9.54
2023-01-12T04:29:47.388Z,9.54
2023-01-12T04:30:47.368Z,9.55
2023-01-12T04:31:47.407Z,9.55
2023-01-12T04:32:47.348Z,9.54
2023-01-12T04:33:47.309Z,9.55
2023-01-12T04:34:47.306Z,9.54
2023-01-12T04:35:47.433Z,9.55
2023-01-12T04:36:47.297Z,9.54
2023-01-12T04:37:47.271Z,9.54
2023-01-12T04:38:47.263Z,9.54
2023-01-12T04:39:47.251Z,9.54
2023-01-12T04:40:47.239Z,9.54
2023-01-12T04:41:47.239Z,9.54
2023-01-12T04:42:47.209Z,9.55
2023-01-12T04:43:47.200Z,9.55
2023-01-12T04:44:47.181Z,9.56
2023-01-12T04:45:47.195Z,9.56
2023-01-12T04:46:47.179Z,9.56
2023-01-12T04:47:47.165Z,9.56
2023-01-12T04:48:47.129Z,9.55
2023-01-12T04:49:47.110Z,9.55
2023-01-12T04:50:47.140Z,9.55
2023-01-12T04:51:47.101Z,9.55
2023-01-12T04:52:47.070Z,9.54
2023-01-12T04:53:47.049Z,9.54
2023-01-12T04:54:47.058Z,9.54
2023-01-12T04:55:54.568Z,9.51
2023-01-12T04:56:47.056Z,9.51
2023-01-12T04:57:47.030Z,9.49
2023-01-12T04:58:47.023Z,9.51
2023-01-12T04:59:46.991Z,9.51
2023-01-12T05:00:47.001Z,9.51
2023-01-12T05:01:47.016Z,9.49
2023-01-12T05:02:46.936Z,9.49
2023-01-12T05:03:46.950Z,9.49
2023-01-12T05:04:46.926Z,9.49
2023-01-12T05:05:46.897Z,9.51
2023-01-12T05:06:46.905Z,9.51
2023-01-12T05:07:46.867Z,9.51
2023-01-12T05:08:46.860Z,9.51
2023-01-12T05:09:46.848Z,9.51
2023-01-12T05:10:46.943Z,9.51
2023-01-12T05:11:46.857Z,9.52
2023-01-12T05:12:46.808Z,9.52
2023-01-12T05:13:46.787Z,9.51
2023-01-12T05:14:46.789Z,9.52
2023-01-12T05:15:46.790Z,9.52
2023-01-12T05:16:46.908Z,9.52
2023-01-12T05:17:46.741Z,9.52
2023-01-12T05:18:46.745Z,9.51
2023-01-12T05:19:46.715Z,9.49
2023-01-12T05:20:46.712Z,9.49
2023-01-12T05:21:46.707Z,9.48
2023-01-12T05:22:46.693Z,9.47
2023-01-12T05:23:46.656Z,9.47
2023-01-12T05:24:46.655Z,9.47
2023-01-12T05:25:46.627Z,9.45
2023-01-12T05:26:46.657Z,9.47
2023-01-12T05:27:46.608Z,9.44
2023-01-12T05:28:46.597Z,9.45
2023-01-12T05:29:46.585Z,9.44
2023-01-12T05:30:46.623Z,9.44
2023-01-12T05:31:46.554Z,9.44
2023-01-12T05:32:46.560Z,9.44
2023-01-12T05:33:46.558Z,9.40
2023-01-12T05:34:46.551Z,9.39
2023-01-12T05:35:46.505Z,9.39
2023-01-12T05:36:46.487Z,9.39
2023-01-12T05:37:46.488Z,9.39
2023-01-12T05:38:46.506Z,9.39
2023-01-12T05:39:46.436Z,9.37
2023-01-12T05:40:46.442Z,9.39
2023-01-12T05:41:46.407Z,9.40
2023-01-12T05:42:46.446Z,9.40
2023-01-12T05:43:46.398Z,9.44
2023-01-12T05:44:46.387Z,9.44
2023-01-12T05:45:46.441Z,9.44
2023-01-12T05:46:46.358Z,9.44
2023-01-12T05:47:46.356Z,9.44
2023-01-12T05:48:46.341Z,9.44
2023-01-12T05:49:46.317Z,9.44
2023-01-12T05:50:46.306Z,9.44
2023-01-12T05:51:46.298Z,9.42
2023-01-12T05:52:46.315Z,9.45
2023-01-12T05:53:46.247Z,9.62
2023-01-12T05:54:46.250Z,9.76
2023-01-12T05:55:46.267Z,9.97
2023-01-12T05:56:47.519Z,10.18
2023-01-12T05:57:46.230Z,10.34
2023-01-12T05:58:46.252Z,10.43
2023-01-12T05:59:46.192Z,10.53
2023-01-12T06:00:46.166Z,10.51
2023-01-12T06:01:46.184Z,10.49
2023-01-12T06:02:46.169Z,10.55
2023-01-12T06:03:46.127Z,10.55
2023-01-12T06:04:46.170Z,10.67
2023-01-12T06:05:46.110Z,10.82
2023-01-12T06:06:46.098Z,10.80
2023-01-12T06:07:46.088Z,10.75
2023-01-12T06:08:46.066Z,10.68
2023-01-12T06:09:46.058Z,10.65
2023-01-12T06:10:46.045Z,10.80
2023-01-12T06:11:46.028Z,11.00
2023-01-12T06:12:46.048Z,11.12
2023-01-12T06:13:46.039Z,11.20
2023-01-12T06:14:46.039Z,11.30
2023-01-12T06:15:46.045Z,11.23
2023-01-12T06:16:45.994Z,11.33
2023-01-12T06:17:45.948Z,11.22
2023-01-12T06:18:45.955Z,11.05
2023-01-12T06:19:45.959Z,10.87
2023-01-12T06:20:45.918Z,10.69
2023-01-12T06:21:45.900Z,10.41
2023-01-12T06:22:45.887Z,10.20
2023-01-12T06:23:45.891Z,10.05
2023-01-12T06:24:45.861Z,9.95
2023-01-12T06:25:45.840Z,9.88
2023-01-12T06:26:45.836Z,9.80
2023-01-12T06:27:45.920Z,9.67
2023-01-12T06:28:45.837Z,9.56
2023-01-12T06:29:45.791Z,9.51
2023-01-12T06:30:45.829Z,9.44
2023-01-12T06:31:45.760Z,9.36
2023-01-12T06:32:45.761Z,9.30
2023-01-12T06:33:45.744Z,9.26
2023-01-12T06:34:45.773Z,9.22
2023-01-12T06:35:45.708Z,9.21
2023-01-12T06:36:45.708Z,9.18
2023-01-12T06:37:45.689Z,9.15
2023-01-12T06:38:45.670Z,9.13
2023-01-12T06:39:45.681Z,9.11
2023-01-12T06:40:45.659Z,9.09
2023-01-12T06:41:45.639Z,9.05
2023-01-12T06:42:45.630Z,9.05
2023-01-12T06:43:45.599Z,9.03
2023-01-12T06:44:47.187Z,9.03
2023-01-12T06:45:45.579Z,9.02
2023-01-12T06:46:45.569Z,8.99
2023-01-12T06:47:45.571Z,8.97
2023-01-12T06:48:45.553Z,8.97
2023-01-12T06:49:45.534Z,8.97
2023-01-12T06:50:45.525Z,9.00
2023-01-12T06:51:45.511Z,8.99
2023-01-12T06:52:45.488Z,8.96
2023-01-12T06:53:45.487Z,8.96
2023-01-12T06:54:45.479Z,8.96
2023-01-12T06:55:45.448Z,8.97
2023-01-12T06:56:45.440Z,8.99
2023-01-12T06:57:45.409Z,8.99
2023-01-12T06:58:45.409Z,8.96
2023-01-12T06:59:45.411Z,8.97
2023-01-12T07:00:45.401Z,8.97
2023-01-12T07:01:45.575Z,8.96
2023-01-12T07:02:45.361Z,8.95
2023-01-12T07:03:45.346Z,8.93
2023-01-12T07:04:45.415Z,8.95
2023-01-12T07:05:45.320Z,8.95
2023-01-12T07:06:45.320Z,8.95
2023-01-12T07:07:45.311Z,8.95
2023-01-12T07:08:45.286Z,8.93
2023-01-12T07:09:45.301Z,8.95
2023-01-12T07:10:45.270Z,8.95
2023-01-12T07:11:45.240Z,8.95
2023-01-12T07:12:45.249Z,8.96
2023-01-12T07:13:45.203Z,8.95
2023-01-12T07:14:45.224Z,8.96
2023-01-12T07:15:45.257Z,8.93
2023-01-12T07:16:45.225Z,8.93
2023-01-12T07:17:45.158Z,8.95
2023-01-12T07:18:45.213Z,8.93
2023-01-12T07:19:45.183Z,8.90
2023-01-12T07:20:45.143Z,8.89
2023-01-12T07:21:45.093Z,8.90
2023-01-12T07:22:45.134Z,8.90
2023-01-12T07:23:45.113Z,8.89
2023-01-12T07:24:45.072Z,8.84
2023-01-12T07:25:45.058Z,8.86
2023-01-12T07:26:45.073Z,8.84
2023-01-12T07:27:45.011Z,8.84
2023-01-12T07:28:45.001Z,8.84
2023-01-12T07:29:45.017Z,8.81
2023-01-12T07:30:45.050Z,8.84
2023-01-12T07:31:44.991Z,8.82
2023-01-12T07:32:44.949Z,8.86
2023-01-12T07:33:44.939Z,8.84
2023-01-12T07:34:44.925Z,8.82
2023-01-12T07:35:44.921Z,8.82
2023-01-12T07:36:44.912Z,8.82
2023-01-12T07:37:44.881Z,8.82
2023-01-12T07:38:44.864Z,8.82
2023-01-12T07:39:44.853Z,8.82
2023-01-12T07:40:44.851Z,8.82
2023-01-12T07:41:44.840Z,8.82
2023-01-12T07:42:44.820Z,8.84
2023-01-12T07:43:44.811Z,8.81
2023-01-12T07:44:44.797Z,8.81
2023-01-12T07:45:44.805Z,8.81
2023-01-12T07:46:44.890Z,8.79
2023-01-12T07:47:44.759Z,8.79
2023-01-12T07:48:44.740Z,8.79
2023-01-12T07:49:44.733Z,8.79
2023-01-12T07:50:44.721Z,8.78
2023-01-12T07:51:44.701Z,8.78
2023-01-12T07:52:44.689Z,8.77
2023-01-12T07:53:44.681Z,8.77
2023-01-12T07:54:44.665Z,8.78
2023-01-12T07:55:44.669Z,8.77
2023-01-12T07:56:44.639Z,8.77
2023-01-12T07:57:44.620Z,8.75
2023-01-12T07:58:44.622Z,8.74
2023-01-12T07:59:44.599Z,8.75
2023-01-12T08:00:44.611Z,8.75
2023-01-12T08:01:44.692Z,8.78
2023-01-12T08:02:44.566Z,8.77
2023-01-12T08:03:44.629Z,8.78
2023-01-12T08:04:44.534Z,8.78
2023-01-12T08:05:44.581Z,8.78
2023-01-12T08:06:44.493Z,8.78
2023-01-12T08:07:44.481Z,8.78
2023-01-12T08:08:44.578Z,8.78
2023-01-12T08:09:44.475Z,8.78
2023-01-12T08:10:44.480Z,8.79
2023-01-12T08:11:44.454Z,8.81
2023-01-12T08:12:44.413Z,8.81
2023-01-12T08:13:44.410Z,8.79
2023-01-12T08:14:44.410Z,8.81
2023-01-12T08:15:44.397Z,8.82
2023-01-12T08:16:44.366Z,8.81
2023-01-12T08:17:44.362Z,8.82
2023-01-12T08:18:44.332Z,8.84
2023-01-12T08:19:44.320Z,8.84
2023-01-12T08:20:44.331Z,8.86
2023-01-12T08:21:44.300Z,8.84
2023-01-12T08:22:44.283Z,8.84
2023-01-12T08:23:44.281Z,8.87
2023-01-12T08:24:44.269Z,8.86
2023-01-12T08:25:44.279Z,8.86
2023-01-12T08:26:44.238Z,8.87
2023-01-12T08:27:44.231Z,8.89
2023-01-12T08:28:44.224Z,8.87
2023-01-12T08:29:44.289Z,8.87
2023-01-12T08:30:44.230Z,8.86
2023-01-12T08:31:44.196Z,8.86
2023-01-12T08:32:44.151Z,8.87
2023-01-12T08:33:44.163Z,8.87
2023-01-12T08:34:44.128Z,8.89
2023-01-12T08:35:44.149Z,8.90
2023-01-12T08:36:44.671Z,8.90
2023-01-12T08:37:44.115Z,8.92
2023-01-12T08:38:44.130Z,8.92
2023-01-12T08:39:44.072Z,8.93
2023-01-12T08:40:44.074Z,8.95
2023-01-12T08:41:44.059Z,8.95
2023-01-12T08:42:44.024Z,8.97
2023-01-12T08:43:44.020Z,8.97
2023-01-12T08:44:43.993Z,8.99
2023-01-12T08:45:43.979Z,8.99
2023-01-12T08:46:44.038Z,9.00
2023-01-12T08:47:43.952Z,8.99
2023-01-12T08:48:44.003Z,9.02
2023-01-12T08:49:43.928Z,9.03
2023-01-12T08:50:43.946Z,9.02
2023-01-12T08:51:43.934Z,9.05
2023-01-12T08:52:43.880Z,9.08
2023-01-12T08:53:43.874Z,9.08
2023-01-12T08:54:43.880Z,9.08
2023-01-12T08:55:43.841Z,9.05
2023-01-12T08:56:43.864Z,9.09
2023-01-12T08:57:43.833Z,9.08
2023-01-12T08:58:43.810Z,9.11
2023-01-12T08:59:43.810Z,9.12
2023-01-12T09:00:43.807Z,9.13
2023-01-12T09:01:43.930Z,9.13
2023-01-12T09:02:43.791Z,9.15
2023-01-12T09:03:43.751Z,9.15
2023-01-12T09:04:43.724Z,9.15
2023-01-12T09:05:43.708Z,9.13
2023-01-12T09:06:43.730Z,9.13
2023-01-12T09:07:43.697Z,9.15
2023-01-12T09:08:43.678Z,9.15
2023-01-12T09:09:43.674Z,9.15
2023-01-12T09:10:43.661Z,9.16
2023-01-12T09:11:43.656Z,9.15
2023-01-12T09:12:43.631Z,9.13
2023-01-12T09:13:43.630Z,9.16
2023-01-12T09:14:43.592Z,9.16
2023-01-12T09:15:56.474Z,9.15
2023-01-12T09:16:44.632Z,9.18
2023-01-12T09:17:43.564Z,9.18
2023-01-12T09:18:43.541Z,9.19
2023-01-12T09:19:43.542Z,9.18
2023-01-12T09:20:43.534Z,9.19
2023-01-12T09:21:43.534Z,9.18
2023-01-12T09:22:43.496Z,9.18
2023-01-12T09:23:43.482Z,9.21
2023-01-12T09:24:43.452Z,9.21
2023-01-12T09:25:43.455Z,9.22
2023-01-12T09:26:43.452Z,9.22
2023-01-12T09:27:43.432Z,9.24
2023-01-12T09:28:43.422Z,9.26
2023-01-12T09:29:43.414Z,9.26
2023-01-12T09:30:43.403Z,9.26
2023-01-12T09:31:43.454Z,9.26
2023-01-12T09:32:43.364Z,9.26
2023-01-12T09:33:43.364Z,9.29
2023-01-12T09:34:43.348Z,9.29
2023-01-12T09:35:43.311Z,9.30
2023-01-12T09:36:43.316Z,9.33
2023-01-12T09:37:43.282Z,9.30
2023-01-12T09:38:43.285Z,9.34
2023-01-12T09:39:43.251Z,9.34
2023-01-12T09:40:43.271Z,9.37
2023-01-12T09:41:43.251Z,9.36
2023-01-12T09:42:43.252Z,9.39
2023-01-12T09:43:43.219Z,9.40
2023-01-12T09:44:43.192Z,9.40
2023-01-12T09:45:43.229Z,9.40
2023-01-12T09:46:43.172Z,9.39
2023-01-12T09:47:43.173Z,9.40
2023-01-12T09:48:43.152Z,9.40
2023-01-12T09:49:43.152Z,9.40
2023-01-12T09:50:43.146Z,9.40
2023-01-12T09:51:43.121Z,9.40
2023-01-12T09:52:43.146Z,9.40
2023-01-12T09:53:43.092Z,9.44
2023-01-12T09:54:43.071Z,9.42
2023-01-12T09:55:43.056Z,9.44
2023-01-12T09:56:43.046Z,9.45
2023-01-12T09:57:43.050Z,9.48
2023-01-12T09:58:43.033Z,9.47
2023-01-12T09:59:43.011Z,9.48
2023-01-12T10:00:43.001Z,9.49
2023-01-12T10:01:43.042Z,9.48
2023-01-12T10:02:43.091Z,9.49
2023-01-12T10:03:42.979Z,9.49
2023-01-12T10:04:42.932Z,9.49
2023-01-12T10:05:42.940Z,9.51
2023-01-12T10:06:42.933Z,9.52
2023-01-12T10:07:42.937Z,9.52
2023-01-12T10:08:42.891Z,9.51
2023-01-12T10:09:42.871Z,9.51
2023-01-12T10:10:42.873Z,9.49
2023-01-12T10:11:42.862Z,9.49
2023-01-12T10:12:42.865Z,9.51
2023-01-12T10:13:42.824Z,9.49
2023-01-12T10:14:42.846Z,9.51
2023-01-12T10:15:42.794Z,9.51
2023-01-12T10:16:42.845Z,9.52
2023-01-12T10:17:51.439Z,9.52
2023-01-12T10:18:44.846Z,9.52
2023-01-12T10:19:42.767Z,9.54
2023-01-12T10:20:42.746Z,9.54
2023-01-12T10:21:42.775Z,9.55
2023-01-12T10:22:42.728Z,9.55
2023-01-12T10:23:42.708Z,9.58
2023-01-12T10:24:42.688Z,9.56
2023-01-12T10:25:42.671Z,9.58
2023-01-12T10:26:42.663Z,9.58
2023-01-12T10:27:42.675Z,9.56
2023-01-12T10:28:42.624Z,9.56
2023-01-12T10:29:42.613Z,9.58
2023-01-12T10:30:42.604Z,9.58
2023-01-12T10:31:42.647Z,9.59
2023-01-12T10:32:42.573Z,9.63
2023-01-12T10:33:42.599Z,9.62
2023-01-12T10:34:42.543Z,9.62
2023-01-12T10:35:42.534Z,9.59
2023-01-12T10:36:42.534Z,9.62
2023-01-12T10:37:42.504Z,9.62
2023-01-12T10:38:42.518Z,9.63
2023-01-12T10:39:42.485Z,9.63
2023-01-12T10:40:42.488Z,9.64
2023-01-12T10:41:42.466Z,9.64
2023-01-12T10:42:42.442Z,9.63
2023-01-12T10:43:42.462Z,9.64
2023-01-12T10:44:42.413Z,9.64
2023-01-12T10:45:42.430Z,9.66
2023-01-12T10:46:42.394Z,9.66
2023-01-12T10:47:42.383Z,9.67
2023-01-12T10:48:42.393Z,9.67
2023-01-12T10:49:42.345Z,9.70
2023-01-12T10:50:42.373Z,9.69
2023-01-12T10:51:42.356Z,9.70
2023-01-12T10:52:42.302Z,9.72
2023-01-12T10:53:42.370Z,9.73
2023-01-12T10:54:42.312Z,9.72
2023-01-12T10:55:42.274Z,9.72
2023-01-12T10:56:49.329Z,9.70
2023-01-12T10:57:42.256Z,9.72
2023-01-12T10:58:42.257Z,9.73
2023-01-12T10:59:42.217Z,9.73
2023-01-12T11:00:42.218Z,9.70
2023-01-12T11:01:42.321Z,9.72
2023-01-12T11:02:42.233Z,9.72
2023-01-12T11:03:42.193Z,9.73
2023-01-12T11:04:42.167Z,9.72
2023-01-12T11:05:42.127Z,9.73
2023-01-12T11:06:42.127Z,9.73
2023-01-12T11:07:42.119Z,9.73
2023-01-12T11:08:42.120Z,9.72
2023-01-12T11:09:42.089Z,9.72
2023-01-12T11:10:42.091Z,9.74
2023-01-12T11:11:42.079Z,9.80
2023-01-12T11:12:42.046Z,9.80
2023-01-12T11:13:42.112Z,9.81
2023-01-12T11:14:42.028Z,9.81
2023-01-12T11:15:42.016Z,9.81
2023-01-12T11:16:42.107Z,9.82
2023-01-12T11:17:41.986Z,9.84
2023-01-12T11:18:41.992Z,9.85
2023-01-12T11:19:41.977Z,9.82
2023-01-12T11:20:41.963Z,9.85
2023-01-12T11:21:41.929Z,9.85
2023-01-12T11:22:41.924Z,9.84
2023-01-12T11:23:41.925Z,9.85
2023-01-12T11:24:41.905Z,9.85
2023-01-12T11:25:41.885Z,9.84
2023-01-12T11:26:41.876Z,9.85
2023-01-12T11:27:41.882Z,9.87
2023-01-12T11:28:41.847Z,9.87
2023-01-12T11:29:41.869Z,9.85
2023-01-12T11:30:41.897Z,9.87
2023-01-12T11:31:41.810Z,9.87
2023-01-12T11:32:41.793Z,9.88
2023-01-12T11:33:41.776Z,9.90
2023-01-12T11:34:41.795Z,9.91
2023-01-12T11:35:41.759Z,9.92
2023-01-12T11:36:41.752Z,9.92
2023-01-12T11:37:41.746Z,9.91
2023-01-12T11:38:41.709Z,9.92
2023-01-12T11:39:41.717Z,9.92
2023-01-12T11:40:41.698Z,9.94
2023-01-12T11:41:41.670Z,9.92
2023-01-12T11:42:41.650Z,9.92
2023-01-12T11:43:41.652Z,9.92
2023-01-12T11:44:41.667Z,9.92
2023-01-12T11:45:41.688Z,9.92
2023-01-12T11:46:41.640Z,9.95
2023-01-12T11:47:42.031Z,9.95
2023-01-12T11:48:41.592Z,9.94
2023-01-12T11:49:41.590Z,9.94
2023-01-12T11:50:41.568Z,9.95
2023-01-12T11:51:41.536Z,9.97
2023-01-12T11:52:41.532Z,9.95
2023-01-12T11:53:41.724Z,9.97
2023-01-12T11:54:41.528Z,9.99
2023-01-12T11:55:41.489Z,9.99
2023-01-12T11:56:41.473Z,10.00
2023-01-12T11:57:41.470Z,9.99
2023-01-12T11:58:41.450Z,10.00
2023-01-12T11:59:41.771Z,10.02
2023-01-12T12:00:41.434Z,10.00
2023-01-12T12:01:41.409Z,10.00
2023-01-12T12:02:41.448Z,10.02
2023-01-12T12:03:41.432Z,10.02
2023-01-12T12:04:41.406Z,10.02
2023-01-12T12:05:41.501Z,10.05
2023-01-12T12:06:41.360Z,10.05
2023-01-12T12:07:41.329Z,10.05
2023-01-12T12:08:41.319Z,10.07
2023-01-12T12:09:41.399Z,10.07
2023-01-12T12:10:41.298Z,10.07
2023-01-12T12:11:42.014Z,10.09
2023-01-12T12:12:41.260Z,10.07
2023-01-12T12:13:41.251Z,10.07
2023-01-12T12:14:41.255Z,10.06
2023-01-12T12:15:41.245Z,10.05
2023-01-12T12:16:41.220Z,10.05
2023-01-12T12:17:41.873Z,10.03
2023-01-12T12:18:41.190Z,10.03
2023-01-12T12:19:41.179Z,10.03
2023-01-12T12:20:41.180Z,10.05
2023-01-12T12:21:41.150Z,10.05
2023-01-12T12:22:41.145Z,10.05
2023-01-12T12:23:41.623Z,10.06
2023-01-12T12:24:41.108Z,10.09
2023-01-12T12:25:41.109Z,10.07
2023-01-12T12:26:41.087Z,10.10
2023-01-12T12:27:41.069Z,10.10
2023-01-12T12:28:41.083Z,10.12
2023-01-12T12:29:41.243Z,10.13
2023-01-12T12:30:41.152Z,10.12
2023-01-12T12:31:41.010Z,10.12
2023-01-12T12:32:41.014Z,10.12
2023-01-12T12:33:40.991Z,10.12
2023-01-12T12:34:40.979Z,10.12
2023-01-12T12:35:41.557Z,10.12
2023-01-12T12:36:40.948Z,10.13
2023-01-12T12:37:40.930Z,10.12
2023-01-12T12:38:40.928Z,10.13
2023-01-12T12:39:40.910Z,10.12
2023-01-12T12:40:40.911Z,10.10
2023-01-12T12:41:41.618Z,10.13
2023-01-12T12:42:40.877Z,10.13
2023-01-12T12:43:40.859Z,10.12
2023-01-12T12:44:40.851Z,10.15
2023-01-12T12:45:40.853Z,10.12
2023-01-12T12:46:40.849Z,10.13
2023-01-12T12:47:42.118Z,10.15
2023-01-12T12:48:40.825Z,10.15
2023-01-12T12:49:40.772Z,10.13
2023-01-12T12:50:40.791Z,10.13
2023-01-12T12:51:40.752Z,10.12
2023-01-12T12:52:40.740Z,10.12
2023-01-12T12:53:41.892Z,10.10
2023-01-12T12:54:40.742Z,10.10
2023-01-12T12:55:40.721Z,10.09
2023-01-12T12:56:40.702Z,10.09
2023-01-12T12:57:40.670Z,10.12
2023-01-12T12:58:40.660Z,10.10
2023-01-12T12:59:40.660Z,10.12
2023-01-12T13:00:40.729Z,10.12
2023-01-12T13:01:40.691Z,10.10
2023-01-12T13:02:40.644Z,10.12
2023-01-12T13:03:40.621Z,10.13
2023-01-12T13:04:40.578Z,10.13
2023-01-12T13:05:40.571Z,10.10
2023-01-12T13:06:40.590Z,10.09
2023-01-12T13:07:40.541Z,10.10
2023-01-12T13:08:40.539Z,10.12
2023-01-12T13:09:40.521Z,10.10
2023-01-12T13:10:40.521Z,10.09
2023-01-12T13:11:40.513Z,10.10
2023-01-12T13:12:40.481Z,10.07
2023-01-12T13:13:40.469Z,10.09
2023-01-12T13:14:40.440Z,10.10